Forside
METAR-TAF:

METAR-TAF

Lufthavne :

Ames, Iowa, USA

Breddekreds: 41-59-26N, længdekreds: 093-37-08W, højde: 288 m

Aktuelle vejr

Denne rapport blev lavet for 45 minutter siden, kl. 23:53 UTC
Vind 19 kt fra vestnordvest med vindstød på up til 26 kt
Temperatur -10°C
Fugtighed 72%
Tryk 1014 hPa
Sigt: 16.1 km
skyfri

METAR: KAMW 092353Z AUTO 30019G26KT 10SM CLR M10/M14 A2995 RMK AO2 PK WND 32026/2311 SLP151 60000 T11001144 11067 21100 53038

Tid: 18:38 (00:38 UTC)


TAF: fraværende

Vejrobservationer og prognoser fra mere end 4000 lufthavne (METAR og TAF).

De gule og røde prikker repræsenterer de meteorologiske stationer.

Flyt musen over at se navnet på stationen.

Så klik over at se vejr observationer og prognoser.

At skifte det kort: Klik på de grønne knapper med et sort kors for at zoome ind; på den grønne knap med en bindestreg for at zoome ud; eller på de grønne pile for tilstødende kort.


METAR-TAF: